Terminal Aerodrome Forecast
Issued by NWS

Home | Current Version | Previous Version | Text Only | Print | Product List | Glossary On
Versions: 1 2 3 4 5 6 7 8 9 10 11 12 13 14 15 16 17 18 19 20 21 22 23 24 25 26 27
000
FTUS43 KUNR 201121
TAFGCC
TAF
KGCC 201121Z 2012/2112 33006KT P6SM BKN100
     FM210000 03013KT P6SM -RA OVC050
     FM210400 05008KT 3SM -SN OVC008
     FM211100 12011KT P6SM OVC008=

USA.gov is the U.S. government's official web portal to all federal, state and local government web resources and services.